sensor_id;sensor_type;location;lat;lon;timestamp;P1;durP1;ratioP1;P2;durP2;ratioP2
36599;SDS011;35385;55.668;37.508;2023-04-03T00:00:11;7.87;;;5.20;;
36599;SDS011;35385;55.668;37.508;2023-04-03T00:01:12;8.20;;;5.53;;
36599;SDS011;35385;55.668;37.508;2023-04-03T00:02:13;12.32;;;5.80;;
36599;SDS011;35385;55.668;37.508;2023-04-03T00:03:14;9.63;;;5.90;;
36599;SDS011;35385;55.668;37.508;2023-04-03T00:04:14;10.00;;;6.30;;
36599;SDS011;35385;55.668;37.508;2023-04-03T00:05:15;10.67;;;5.90;;
36599;SDS011;35385;55.668;37.508;2023-04-03T00:06:16;9.57;;;5.63;;
36599;SDS011;35385;55.668;37.508;2023-04-03T00:07:16;11.57;;;6.13;;
36599;SDS011;35385;55.668;37.508;2023-04-03T00:08:17;11.50;;;5.83;;
36599;SDS011;35385;55.668;37.508;2023-04-03T00:09:17;9.10;;;5.53;;
36599;SDS011;35385;55.668;37.508;2023-04-03T00:10:18;8.17;;;5.33;;
36599;SDS011;35385;55.668;37.508;2023-04-03T00:11:18;7.90;;;5.40;;
36599;SDS011;35385;55.668;37.508;2023-04-03T00:12:20;10.00;;;5.93;;
36599;SDS011;35385;55.668;37.508;2023-04-03T00:13:21;11.83;;;5.80;;
36599;SDS011;35385;55.668;37.508;2023-04-03T00:14:21;11.03;;;6.47;;
36599;SDS011;35385;55.668;37.508;2023-04-03T00:15:22;9.30;;;6.20;;
36599;SDS011;35385;55.668;37.508;2023-04-03T00:16:22;9.73;;;6.57;;
36599;SDS011;35385;55.668;37.508;2023-04-03T00:17:23;8.83;;;5.60;;
36599;SDS011;35385;55.668;37.508;2023-04-03T00:18:24;9.47;;;5.27;;
36599;SDS011;35385;55.668;37.508;2023-04-03T00:19:24;9.18;;;6.05;;
36599;SDS011;35385;55.668;37.508;2023-04-03T00:20:25;9.67;;;5.90;;
36599;SDS011;35385;55.668;37.508;2023-04-03T00:22:27;9.15;;;5.85;;
36599;SDS011;35385;55.668;37.508;2023-04-03T00:23:28;11.85;;;6.22;;
36599;SDS011;35385;55.668;37.508;2023-04-03T00:24:29;11.13;;;6.40;;
36599;SDS011;35385;55.668;37.508;2023-04-03T00:25:29;12.47;;;6.27;;
36599;SDS011;35385;55.668;37.508;2023-04-03T00:26:30;9.17;;;5.60;;
36599;SDS011;35385;55.668;37.508;2023-04-03T00:27:30;10.23;;;6.33;;
36599;SDS011;35385;55.668;37.508;2023-04-03T00:28:31;9.53;;;5.77;;
36599;SDS011;35385;55.668;37.508;2023-04-03T00:29:31;11.13;;;6.23;;
36599;SDS011;35385;55.668;37.508;2023-04-03T00:30:32;11.33;;;6.20;;
36599;SDS011;35385;55.668;37.508;2023-04-03T00:31:33;10.83;;;6.27;;
36599;SDS011;35385;55.668;37.508;2023-04-03T00:32:33;9.70;;;6.27;;
36599;SDS011;35385;55.668;37.508;2023-04-03T00:33:34;12.13;;;6.40;;
36599;SDS011;35385;55.668;37.508;2023-04-03T00:34:35;14.30;;;6.10;;
36599;SDS011;35385;55.668;37.508;2023-04-03T00:35:35;11.63;;;6.20;;
36599;SDS011;35385;55.668;37.508;2023-04-03T00:36:35;12.50;;;6.53;;
36599;SDS011;35385;55.668;37.508;2023-04-03T00:37:36;9.00;;;5.67;;
36599;SDS011;35385;55.668;37.508;2023-04-03T00:38:37;10.73;;;6.10;;
36599;SDS011;35385;55.668;37.508;2023-04-03T00:39:37;8.77;;;6.10;;
36599;SDS011;35385;55.668;37.508;2023-04-03T00:40:39;9.10;;;6.23;;
36599;SDS011;35385;55.668;37.508;2023-04-03T00:41:43;10.93;;;5.85;;
36599;SDS011;35385;55.668;37.508;2023-04-03T00:42:44;9.33;;;6.47;;
36599;SDS011;35385;55.668;37.508;2023-04-03T00:43:46;9.80;;;5.97;;
36599;SDS011;35385;55.668;37.508;2023-04-03T00:45:51;9.73;;;6.07;;
36599;SDS011;35385;55.668;37.508;2023-04-03T00:46:53;10.02;;;5.65;;
36599;SDS011;35385;55.668;37.508;2023-04-03T00:47:54;11.97;;;5.93;;
36599;SDS011;35385;55.668;37.508;2023-04-03T00:48:55;9.98;;;6.30;;
36599;SDS011;35385;55.668;37.508;2023-04-03T00:49:56;10.87;;;6.60;;
36599;SDS011;35385;55.668;37.508;2023-04-03T00:50:57;12.23;;;6.63;;
36599;SDS011;35385;55.668;37.508;2023-04-03T00:51:59;11.55;;;6.40;;
36599;SDS011;35385;55.668;37.508;2023-04-03T00:53:00;10.17;;;6.40;;
36599;SDS011;35385;55.668;37.508;2023-04-03T00:54:01;10.07;;;6.40;;
36599;SDS011;35385;55.668;37.508;2023-04-03T00:55:05;13.13;;;6.53;;
36599;SDS011;35385;55.668;37.508;2023-04-03T00:56:09;14.88;;;7.13;;
36599;SDS011;35385;55.668;37.508;2023-04-03T00:57:12;9.27;;;6.43;;
36599;SDS011;35385;55.668;37.508;2023-04-03T00:58:13;9.00;;;6.03;;
36599;SDS011;35385;55.668;37.508;2023-04-03T00:59:25;13.05;;;6.72;;
36599;SDS011;35385;55.668;37.508;2023-04-03T01:01:30;8.35;;;6.13;;
36599;SDS011;35385;55.668;37.508;2023-04-03T01:02:31;8.23;;;6.22;;
36599;SDS011;35385;55.668;37.508;2023-04-03T01:03:32;11.97;;;7.17;;
36599;SDS011;35385;55.668;37.508;2023-04-03T01:04:40;11.97;;;7.07;;
36599;SDS011;35385;55.668;37.508;2023-04-03T01:05:41;12.63;;;6.78;;
36599;SDS011;35385;55.668;37.508;2023-04-03T01:06:42;13.03;;;7.43;;
36599;SDS011;35385;55.668;37.508;2023-04-03T01:07:43;15.67;;;7.10;;
36599;SDS011;35385;55.668;37.508;2023-04-03T01:08:45;14.60;;;7.25;;
36599;SDS011;35385;55.668;37.508;2023-04-03T01:09:50;12.57;;;7.47;;
36599;SDS011;35385;55.668;37.508;2023-04-03T01:10:53;12.13;;;7.28;;
36599;SDS011;35385;55.668;37.508;2023-04-03T01:11:53;10.73;;;7.33;;
36599;SDS011;35385;55.668;37.508;2023-04-03T01:12:54;11.27;;;7.60;;
36599;SDS011;35385;55.668;37.508;2023-04-03T01:13:54;13.60;;;7.47;;
36599;SDS011;35385;55.668;37.508;2023-04-03T01:14:56;11.17;;;8.00;;
36599;SDS011;35385;55.668;37.508;2023-04-03T01:16:04;13.68;;;7.28;;
36599;SDS011;35385;55.668;37.508;2023-04-03T01:17:23;11.35;;;7.25;;
36599;SDS011;35385;55.668;37.508;2023-04-03T01:18:41;10.75;;;6.65;;
36599;SDS011;35385;55.668;37.508;2023-04-03T01:19:43;12.50;;;7.50;;
36599;SDS011;35385;55.668;37.508;2023-04-03T01:21:17;12.95;;;7.30;;
36599;SDS011;35385;55.668;37.508;2023-04-03T01:22:24;10.25;;;6.85;;
36599;SDS011;35385;55.668;37.508;2023-04-03T01:23:34;12.18;;;7.07;;
36599;SDS011;35385;55.668;37.508;2023-04-03T01:24:44;9.38;;;6.57;;
36599;SDS011;35385;55.668;37.508;2023-04-03T01:25:50;10.75;;;7.25;;
36599;SDS011;35385;55.668;37.508;2023-04-03T01:26:52;10.55;;;6.50;;
36599;SDS011;35385;55.668;37.508;2023-04-03T01:27:53;10.03;;;6.87;;
36599;SDS011;35385;55.668;37.508;2023-04-03T01:28:54;11.35;;;7.32;;
36599;SDS011;35385;55.668;37.508;2023-04-03T01:29:55;10.38;;;7.20;;
36599;SDS011;35385;55.668;37.508;2023-04-03T01:31:06;9.93;;;6.67;;
36599;SDS011;35385;55.668;37.508;2023-04-03T01:32:31;12.52;;;7.13;;
36599;SDS011;35385;55.668;37.508;2023-04-03T01:33:32;10.27;;;7.37;;
36599;SDS011;35385;55.668;37.508;2023-04-03T01:34:33;10.70;;;7.50;;
36599;SDS011;35385;55.668;37.508;2023-04-03T01:35:33;14.00;;;8.10;;
36599;SDS011;35385;55.668;37.508;2023-04-03T01:36:34;14.47;;;7.80;;
36599;SDS011;35385;55.668;37.508;2023-04-03T01:37:35;11.47;;;7.60;;
36599;SDS011;35385;55.668;37.508;2023-04-03T01:38:35;15.43;;;8.07;;
36599;SDS011;35385;55.668;37.508;2023-04-03T01:39:36;14.27;;;8.10;;
36599;SDS011;35385;55.668;37.508;2023-04-03T01:40:36;10.33;;;7.50;;
36599;SDS011;35385;55.668;37.508;2023-04-03T01:41:38;11.25;;;7.60;;
36599;SDS011;35385;55.668;37.508;2023-04-03T01:42:38;13.27;;;8.37;;
36599;SDS011;35385;55.668;37.508;2023-04-03T01:43:39;12.27;;;8.20;;
36599;SDS011;35385;55.668;37.508;2023-04-03T01:44:40;12.53;;;8.13;;
36599;SDS011;35385;55.668;37.508;2023-04-03T01:45:41;13.75;;;7.60;;
36599;SDS011;35385;55.668;37.508;2023-04-03T01:46:41;12.30;;;7.47;;
36599;SDS011;35385;55.668;37.508;2023-04-03T01:47:42;13.70;;;8.00;;
36599;SDS011;35385;55.668;37.508;2023-04-03T01:48:43;13.13;;;7.90;;
36599;SDS011;35385;55.668;37.508;2023-04-03T01:49:43;12.73;;;7.60;;
36599;SDS011;35385;55.668;37.508;2023-04-03T01:50:44;16.27;;;8.63;;
36599;SDS011;35385;55.668;37.508;2023-04-03T01:51:45;12.43;;;8.10;;
36599;SDS011;35385;55.668;37.508;2023-04-03T01:52:45;10.93;;;7.20;;
36599;SDS011;35385;55.668;37.508;2023-04-03T01:53:46;11.60;;;8.23;;
36599;SDS011;35385;55.668;37.508;2023-04-03T01:54:46;10.73;;;7.40;;
36599;SDS011;35385;55.668;37.508;2023-04-03T01:55:47;11.30;;;7.47;;
36599;SDS011;35385;55.668;37.508;2023-04-03T01:56:48;10.88;;;8.02;;
36599;SDS011;35385;55.668;37.508;2023-04-03T01:57:48;12.03;;;7.77;;
36599;SDS011;35385;55.668;37.508;2023-04-03T01:58:49;13.80;;;8.30;;
36599;SDS011;35385;55.668;37.508;2023-04-03T01:59:50;11.60;;;8.27;;
36599;SDS011;35385;55.668;37.508;2023-04-03T02:00:51;11.25;;;7.47;;
36599;SDS011;35385;55.668;37.508;2023-04-03T02:02:53;12.13;;;7.78;;
36599;SDS011;35385;55.668;37.508;2023-04-03T02:03:53;10.20;;;8.13;;
36599;SDS011;35385;55.668;37.508;2023-04-03T02:04:54;11.40;;;7.40;;
36599;SDS011;35385;55.668;37.508;2023-04-03T02:05:55;12.83;;;8.40;;
36599;SDS011;35385;55.668;37.508;2023-04-03T02:06:56;11.98;;;7.85;;
36599;SDS011;35385;55.668;37.508;2023-04-03T02:07:56;12.20;;;8.13;;
36599;SDS011;35385;55.668;37.508;2023-04-03T02:08:57;12.57;;;7.70;;
36599;SDS011;35385;55.668;37.508;2023-04-03T02:09:57;12.57;;;8.03;;
36599;SDS011;35385;55.668;37.508;2023-04-03T02:10:58;10.60;;;7.73;;
36599;SDS011;35385;55.668;37.508;2023-04-03T02:11:58;11.60;;;7.63;;
36599;SDS011;35385;55.668;37.508;2023-04-03T02:12:59;12.17;;;8.00;;
36599;SDS011;35385;55.668;37.508;2023-04-03T02:13:59;12.37;;;7.80;;
36599;SDS011;35385;55.668;37.508;2023-04-03T02:15:00;13.27;;;8.23;;
36599;SDS011;35385;55.668;37.508;2023-04-03T02:16:05;11.30;;;8.10;;
36599;SDS011;35385;55.668;37.508;2023-04-03T02:17:07;10.68;;;8.23;;
36599;SDS011;35385;55.668;37.508;2023-04-03T02:18:08;12.82;;;8.65;;
36599;SDS011;35385;55.668;37.508;2023-04-03T02:19:09;11.55;;;8.05;;
36599;SDS011;35385;55.668;37.508;2023-04-03T02:20:10;13.40;;;8.00;;
36599;SDS011;35385;55.668;37.508;2023-04-03T02:21:11;12.70;;;7.82;;
36599;SDS011;35385;55.668;37.508;2023-04-03T02:22:11;12.17;;;8.00;;
36599;SDS011;35385;55.668;37.508;2023-04-03T02:23:12;12.00;;;8.27;;
36599;SDS011;35385;55.668;37.508;2023-04-03T02:24:12;9.87;;;6.97;;
36599;SDS011;35385;55.668;37.508;2023-04-03T02:25:13;13.17;;;7.47;;
36599;SDS011;35385;55.668;37.508;2023-04-03T02:26:14;11.45;;;7.85;;
36599;SDS011;35385;55.668;37.508;2023-04-03T02:27:16;10.95;;;7.45;;
36599;SDS011;35385;55.668;37.508;2023-04-03T02:28:16;11.83;;;7.70;;
36599;SDS011;35385;55.668;37.508;2023-04-03T02:29:17;14.17;;;8.20;;
36599;SDS011;35385;55.668;37.508;2023-04-03T02:30:17;15.53;;;8.37;;
36599;SDS011;35385;55.668;37.508;2023-04-03T02:31:18;10.23;;;8.43;;
36599;SDS011;35385;55.668;37.508;2023-04-03T02:32:19;13.77;;;8.10;;
36599;SDS011;35385;55.668;37.508;2023-04-03T02:33:19;13.60;;;8.37;;
36599;SDS011;35385;55.668;37.508;2023-04-03T02:34:20;15.97;;;8.83;;
36599;SDS011;35385;55.668;37.508;2023-04-03T02:35:20;12.27;;;8.47;;
36599;SDS011;35385;55.668;37.508;2023-04-03T02:36:21;13.13;;;7.90;;
36599;SDS011;35385;55.668;37.508;2023-04-03T02:37:22;16.17;;;8.47;;
36599;SDS011;35385;55.668;37.508;2023-04-03T02:38:22;13.10;;;8.47;;
36599;SDS011;35385;55.668;37.508;2023-04-03T02:39:23;15.52;;;7.90;;
36599;SDS011;35385;55.668;37.508;2023-04-03T02:40:24;12.63;;;8.00;;
36599;SDS011;35385;55.668;37.508;2023-04-03T02:41:24;12.53;;;8.03;;
36599;SDS011;35385;55.668;37.508;2023-04-03T02:42:28;14.48;;;7.85;;
36599;SDS011;35385;55.668;37.508;2023-04-03T02:43:28;11.13;;;7.73;;
36599;SDS011;35385;55.668;37.508;2023-04-03T02:44:29;15.00;;;8.20;;
36599;SDS011;35385;55.668;37.508;2023-04-03T02:45:29;10.63;;;8.50;;
36599;SDS011;35385;55.668;37.508;2023-04-03T02:46:30;10.80;;;7.77;;
36599;SDS011;35385;55.668;37.508;2023-04-03T02:47:31;11.13;;;7.73;;
36599;SDS011;35385;55.668;37.508;2023-04-03T02:48:31;13.43;;;8.43;;
36599;SDS011;35385;55.668;37.508;2023-04-03T02:49:32;13.30;;;8.15;;
36599;SDS011;35385;55.668;37.508;2023-04-03T02:50:33;11.07;;;8.60;;
36599;SDS011;35385;55.668;37.508;2023-04-03T02:51:33;12.10;;;8.73;;
36599;SDS011;35385;55.668;37.508;2023-04-03T02:52:34;13.48;;;7.68;;
36599;SDS011;35385;55.668;37.508;2023-04-03T02:53:35;16.47;;;9.73;;
36599;SDS011;35385;55.668;37.508;2023-04-03T02:54:35;13.97;;;8.80;;
36599;SDS011;35385;55.668;37.508;2023-04-03T02:55:36;14.23;;;8.50;;
36599;SDS011;35385;55.668;37.508;2023-04-03T02:56:36;12.93;;;9.37;;
36599;SDS011;35385;55.668;37.508;2023-04-03T02:57:37;15.40;;;8.97;;
36599;SDS011;35385;55.668;37.508;2023-04-03T02:58:37;16.27;;;8.93;;
36599;SDS011;35385;55.668;37.508;2023-04-03T02:59:38;12.07;;;8.43;;
36599;SDS011;35385;55.668;37.508;2023-04-03T03:00:41;13.25;;;8.43;;
36599;SDS011;35385;55.668;37.508;2023-04-03T03:01:42;15.25;;;8.80;;
36599;SDS011;35385;55.668;37.508;2023-04-03T03:02:43;13.63;;;8.87;;
36599;SDS011;35385;55.668;37.508;2023-04-03T03:03:43;16.60;;;8.97;;
36599;SDS011;35385;55.668;37.508;2023-04-03T03:04:44;14.47;;;9.20;;
36599;SDS011;35385;55.668;37.508;2023-04-03T03:05:45;13.53;;;8.60;;
36599;SDS011;35385;55.668;37.508;2023-04-03T03:06:45;13.60;;;8.27;;
36599;SDS011;35385;55.668;37.508;2023-04-03T03:07:46;14.18;;;8.50;;
36599;SDS011;35385;55.668;37.508;2023-04-03T03:08:47;16.13;;;8.37;;
36599;SDS011;35385;55.668;37.508;2023-04-03T03:09:48;13.20;;;9.10;;
36599;SDS011;35385;55.668;37.508;2023-04-03T03:10:48;12.50;;;8.37;;
36599;SDS011;35385;55.668;37.508;2023-04-03T03:11:51;14.43;;;8.18;;
36599;SDS011;35385;55.668;37.508;2023-04-03T03:12:51;14.27;;;8.53;;
36599;SDS011;35385;55.668;37.508;2023-04-03T03:13:52;15.80;;;9.37;;
36599;SDS011;35385;55.668;37.508;2023-04-03T03:14:53;12.70;;;8.20;;
36599;SDS011;35385;55.668;37.508;2023-04-03T03:15:53;15.23;;;8.83;;
36599;SDS011;35385;55.668;37.508;2023-04-03T03:16:54;14.27;;;8.73;;
36599;SDS011;35385;55.668;37.508;2023-04-03T03:17:55;14.37;;;8.27;;
36599;SDS011;35385;55.668;37.508;2023-04-03T03:18:55;12.57;;;8.27;;
36599;SDS011;35385;55.668;37.508;2023-04-03T03:19:56;12.47;;;9.47;;
36599;SDS011;35385;55.668;37.508;2023-04-03T03:20:57;14.97;;;9.03;;
36599;SDS011;35385;55.668;37.508;2023-04-03T03:21:58;13.88;;;8.55;;
36599;SDS011;35385;55.668;37.508;2023-04-03T03:22:59;11.23;;;8.33;;
36599;SDS011;35385;55.668;37.508;2023-04-03T03:23:59;16.43;;;8.70;;
36599;SDS011;35385;55.668;37.508;2023-04-03T03:25:00;15.10;;;9.30;;
36599;SDS011;35385;55.668;37.508;2023-04-03T03:26:03;15.95;;;8.82;;
36599;SDS011;35385;55.668;37.508;2023-04-03T03:27:05;15.63;;;9.13;;
36599;SDS011;35385;55.668;37.508;2023-04-03T03:28:06;14.60;;;8.20;;
36599;SDS011;35385;55.668;37.508;2023-04-03T03:29:08;13.25;;;8.85;;
36599;SDS011;35385;55.668;37.508;2023-04-03T03:30:09;12.30;;;8.57;;
36599;SDS011;35385;55.668;37.508;2023-04-03T03:31:10;14.38;;;8.75;;
36599;SDS011;35385;55.668;37.508;2023-04-03T03:32:12;12.60;;;8.73;;
36599;SDS011;35385;55.668;37.508;2023-04-03T03:33:12;14.97;;;9.00;;
36599;SDS011;35385;55.668;37.508;2023-04-03T03:34:13;14.73;;;8.53;;
36599;SDS011;35385;55.668;37.508;2023-04-03T03:35:13;13.73;;;8.23;;
36599;SDS011;35385;55.668;37.508;2023-04-03T03:36:14;17.00;;;9.27;;
36599;SDS011;35385;55.668;37.508;2023-04-03T03:37:15;15.87;;;9.27;;
36599;SDS011;35385;55.668;37.508;2023-04-03T03:38:15;13.47;;;8.80;;
36599;SDS011;35385;55.668;37.508;2023-04-03T03:39:16;14.40;;;9.33;;
36599;SDS011;35385;55.668;37.508;2023-04-03T03:40:16;14.40;;;9.13;;
36599;SDS011;35385;55.668;37.508;2023-04-03T03:41:17;18.17;;;9.30;;
36599;SDS011;35385;55.668;37.508;2023-04-03T03:42:17;15.90;;;9.87;;
36599;SDS011;35385;55.668;37.508;2023-04-03T03:43:18;13.43;;;8.27;;
36599;SDS011;35385;55.668;37.508;2023-04-03T03:44:20;14.70;;;9.63;;
36599;SDS011;35385;55.668;37.508;2023-04-03T03:45:21;17.73;;;10.27;;
36599;SDS011;35385;55.668;37.508;2023-04-03T03:46:21;13.30;;;8.70;;
36599;SDS011;35385;55.668;37.508;2023-04-03T03:47:22;15.13;;;9.27;;
36599;SDS011;35385;55.668;37.508;2023-04-03T03:48:22;14.03;;;8.73;;
36599;SDS011;35385;55.668;37.508;2023-04-03T03:49:23;16.27;;;9.87;;
36599;SDS011;35385;55.668;37.508;2023-04-03T03:50:24;16.17;;;9.30;;
36599;SDS011;35385;55.668;37.508;2023-04-03T03:51:24;16.97;;;10.13;;
36599;SDS011;35385;55.668;37.508;2023-04-03T03:52:25;17.90;;;9.20;;
36599;SDS011;35385;55.668;37.508;2023-04-03T03:53:26;19.73;;;10.60;;
36599;SDS011;35385;55.668;37.508;2023-04-03T03:54:26;12.20;;;9.07;;
36599;SDS011;35385;55.668;37.508;2023-04-03T03:55:27;14.83;;;8.93;;
36599;SDS011;35385;55.668;37.508;2023-04-03T03:56:27;14.57;;;10.33;;
36599;SDS011;35385;55.668;37.508;2023-04-03T03:57:28;15.80;;;9.73;;
36599;SDS011;35385;55.668;37.508;2023-04-03T03:58:28;14.70;;;10.00;;
36599;SDS011;35385;55.668;37.508;2023-04-03T03:59:29;15.13;;;10.13;;
36599;SDS011;35385;55.668;37.508;2023-04-03T04:00:30;16.03;;;10.13;;
36599;SDS011;35385;55.668;37.508;2023-04-03T04:01:31;17.30;;;10.03;;
36599;SDS011;35385;55.668;37.508;2023-04-03T04:02:31;14.67;;;10.73;;
36599;SDS011;35385;55.668;37.508;2023-04-03T04:03:32;15.23;;;9.83;;
36599;SDS011;35385;55.668;37.508;2023-04-03T04:04:32;17.67;;;10.53;;
36599;SDS011;35385;55.668;37.508;2023-04-03T04:05:33;19.83;;;11.20;;
36599;SDS011;35385;55.668;37.508;2023-04-03T04:06:34;17.67;;;10.60;;
36599;SDS011;35385;55.668;37.508;2023-04-03T04:07:35;17.97;;;10.57;;
36599;SDS011;35385;55.668;37.508;2023-04-03T04:08:35;16.47;;;10.30;;
36599;SDS011;35385;55.668;37.508;2023-04-03T04:09:36;17.17;;;10.67;;
36599;SDS011;35385;55.668;37.508;2023-04-03T04:10:36;18.53;;;10.57;;
36599;SDS011;35385;55.668;37.508;2023-04-03T04:11:37;20.27;;;11.43;;
36599;SDS011;35385;55.668;37.508;2023-04-03T04:12:39;19.45;;;11.27;;
36599;SDS011;35385;55.668;37.508;2023-04-03T04:13:40;27.03;;;11.70;;
36599;SDS011;35385;55.668;37.508;2023-04-03T04:14:41;19.70;;;10.70;;
36599;SDS011;35385;55.668;37.508;2023-04-03T04:15:42;18.83;;;11.85;;
36599;SDS011;35385;55.668;37.508;2023-04-03T04:16:43;18.65;;;11.07;;
36599;SDS011;35385;55.668;37.508;2023-04-03T04:17:43;19.07;;;11.53;;
36599;SDS011;35385;55.668;37.508;2023-04-03T04:18:44;21.90;;;11.47;;
36599;SDS011;35385;55.668;37.508;2023-04-03T04:19:45;25.63;;;12.57;;
36599;SDS011;35385;55.668;37.508;2023-04-03T04:20:45;25.70;;;12.80;;
36599;SDS011;35385;55.668;37.508;2023-04-03T04:21:46;22.08;;;12.18;;
36599;SDS011;35385;55.668;37.508;2023-04-03T04:22:46;24.10;;;12.67;;
36599;SDS011;35385;55.668;37.508;2023-04-03T04:23:47;19.70;;;12.13;;
36599;SDS011;35385;55.668;37.508;2023-04-03T04:24:47;25.50;;;12.77;;
36599;SDS011;35385;55.668;37.508;2023-04-03T04:25:48;24.17;;;12.33;;
36599;SDS011;35385;55.668;37.508;2023-04-03T04:26:49;24.60;;;13.60;;
36599;SDS011;35385;55.668;37.508;2023-04-03T04:27:50;27.33;;;13.23;;
36599;SDS011;35385;55.668;37.508;2023-04-03T04:28:50;26.23;;;13.20;;
36599;SDS011;35385;55.668;37.508;2023-04-03T04:29:51;21.93;;;12.73;;
36599;SDS011;35385;55.668;37.508;2023-04-03T04:30:51;23.90;;;11.83;;
36599;SDS011;35385;55.668;37.508;2023-04-03T04:31:52;21.57;;;12.43;;
36599;SDS011;35385;55.668;37.508;2023-04-03T04:32:52;25.63;;;13.23;;
36599;SDS011;35385;55.668;37.508;2023-04-03T04:33:53;23.67;;;12.77;;
36599;SDS011;35385;55.668;37.508;2023-04-03T04:34:53;22.17;;;12.43;;
36599;SDS011;35385;55.668;37.508;2023-04-03T04:35:54;22.30;;;12.67;;
36599;SDS011;35385;55.668;37.508;2023-04-03T04:36:54;20.83;;;12.13;;
36599;SDS011;35385;55.668;37.508;2023-04-03T04:37:55;20.80;;;12.53;;
36599;SDS011;35385;55.668;37.508;2023-04-03T04:38:56;19.45;;;11.75;;
36599;SDS011;35385;55.668;37.508;2023-04-03T04:39:58;20.45;;;12.30;;
36599;SDS011;35385;55.668;37.508;2023-04-03T04:40:58;22.00;;;12.23;;
36599;SDS011;35385;55.668;37.508;2023-04-03T04:41:59;18.33;;;11.47;;
36599;SDS011;35385;55.668;37.508;2023-04-03T04:43:00;19.67;;;12.27;;
36599;SDS011;35385;55.668;37.508;2023-04-03T04:44:00;20.43;;;12.17;;
36599;SDS011;35385;55.668;37.508;2023-04-03T04:45:01;24.20;;;12.60;;
36599;SDS011;35385;55.668;37.508;2023-04-03T04:46:05;20.30;;;11.77;;
36599;SDS011;35385;55.668;37.508;2023-04-03T04:47:07;20.73;;;11.88;;
36599;SDS011;35385;55.668;37.508;2023-04-03T04:48:08;18.23;;;12.20;;
36599;SDS011;35385;55.668;37.508;2023-04-03T04:49:08;23.97;;;11.50;;
36599;SDS011;35385;55.668;37.508;2023-04-03T04:50:09;17.63;;;11.63;;
36599;SDS011;35385;55.668;37.508;2023-04-03T04:51:10;18.58;;;12.93;;
36599;SDS011;35385;55.668;37.508;2023-04-03T04:52:11;20.00;;;11.95;;
36599;SDS011;35385;55.668;37.508;2023-04-03T04:53:12;16.50;;;11.13;;
36599;SDS011;35385;55.668;37.508;2023-04-03T04:54:12;22.27;;;12.83;;
36599;SDS011;35385;55.668;37.508;2023-04-03T04:55:13;19.60;;;12.10;;
36599;SDS011;35385;55.668;37.508;2023-04-03T04:56:13;20.03;;;11.50;;
36599;SDS011;35385;55.668;37.508;2023-04-03T04:57:14;21.27;;;11.03;;
36599;SDS011;35385;55.668;37.508;2023-04-03T04:58:15;17.55;;;11.75;;
36599;SDS011;35385;55.668;37.508;2023-04-03T04:59:16;17.87;;;11.70;;
36599;SDS011;35385;55.668;37.508;2023-04-03T05:00:16;18.23;;;12.03;;
36599;SDS011;35385;55.668;37.508;2023-04-03T05:01:17;23.05;;;12.70;;
36599;SDS011;35385;55.668;37.508;2023-04-03T05:02:18;19.65;;;12.32;;
36599;SDS011;35385;55.668;37.508;2023-04-03T05:03:19;16.07;;;11.37;;
36599;SDS011;35385;55.668;37.508;2023-04-03T05:04:19;19.10;;;11.43;;
36599;SDS011;35385;55.668;37.508;2023-04-03T05:05:20;17.15;;;11.65;;
36599;SDS011;35385;55.668;37.508;2023-04-03T05:06:21;21.07;;;12.33;;
36599;SDS011;35385;55.668;37.508;2023-04-03T05:07:22;18.33;;;12.23;;
36599;SDS011;35385;55.668;37.508;2023-04-03T05:08:22;18.70;;;11.33;;
36599;SDS011;35385;55.668;37.508;2023-04-03T05:09:23;19.17;;;11.70;;
36599;SDS011;35385;55.668;37.508;2023-04-03T05:10:23;18.37;;;12.57;;
36599;SDS011;35385;55.668;37.508;2023-04-03T05:11:24;21.00;;;12.07;;
36599;SDS011;35385;55.668;37.508;2023-04-03T05:12:25;19.27;;;12.63;;
36599;SDS011;35385;55.668;37.508;2023-04-03T05:13:26;20.03;;;12.03;;
36599;SDS011;35385;55.668;37.508;2023-04-03T05:14:26;22.53;;;12.13;;
36599;SDS011;35385;55.668;37.508;2023-04-03T05:15:27;18.70;;;12.10;;
36599;SDS011;35385;55.668;37.508;2023-04-03T05:16:27;19.80;;;12.43;;
36599;SDS011;35385;55.668;37.508;2023-04-03T05:17:28;21.67;;;11.60;;
36599;SDS011;35385;55.668;37.508;2023-04-03T05:18:28;22.00;;;12.07;;
36599;SDS011;35385;55.668;37.508;2023-04-03T05:19:29;18.57;;;11.77;;
36599;SDS011;35385;55.668;37.508;2023-04-03T05:20:30;23.97;;;11.53;;
36599;SDS011;35385;55.668;37.508;2023-04-03T05:21:31;18.25;;;11.88;;
36599;SDS011;35385;55.668;37.508;2023-04-03T05:22:32;19.48;;;11.50;;
36599;SDS011;35385;55.668;37.508;2023-04-03T05:23:33;18.47;;;11.87;;
36599;SDS011;35385;55.668;37.508;2023-04-03T05:24:33;19.70;;;11.47;;
36599;SDS011;35385;55.668;37.508;2023-04-03T05:25:34;17.43;;;11.10;;
36599;SDS011;35385;55.668;37.508;2023-04-03T05:26:34;20.83;;;11.63;;
36599;SDS011;35385;55.668;37.508;2023-04-03T05:27:35;20.87;;;11.13;;
36599;SDS011;35385;55.668;37.508;2023-04-03T05:28:36;17.37;;;11.37;;
36599;SDS011;35385;55.668;37.508;2023-04-03T05:29:36;20.17;;;10.83;;
36599;SDS011;35385;55.668;37.508;2023-04-03T05:30:37;17.90;;;11.30;;
36599;SDS011;35385;55.668;37.508;2023-04-03T05:31:37;18.87;;;11.10;;
36599;SDS011;35385;55.668;37.508;2023-04-03T05:32:38;20.47;;;11.67;;
36599;SDS011;35385;55.668;37.508;2023-04-03T05:33:38;19.43;;;11.73;;
36599;SDS011;35385;55.668;37.508;2023-04-03T05:34:39;18.93;;;10.97;;
36599;SDS011;35385;55.668;37.508;2023-04-03T05:35:40;16.00;;;10.90;;
36599;SDS011;35385;55.668;37.508;2023-04-03T05:36:41;24.65;;;12.07;;
36599;SDS011;35385;55.668;37.508;2023-04-03T05:37:42;17.63;;;11.40;;
36599;SDS011;35385;55.668;37.508;2023-04-03T05:38:42;17.90;;;12.17;;
36599;SDS011;35385;55.668;37.508;2023-04-03T05:39:43;16.00;;;11.70;;
36599;SDS011;35385;55.668;37.508;2023-04-03T05:40:43;18.47;;;12.07;;
36599;SDS011;35385;55.668;37.508;2023-04-03T05:41:44;20.80;;;11.23;;
36599;SDS011;35385;55.668;37.508;2023-04-03T05:42:44;18.60;;;11.27;;
36599;SDS011;35385;55.668;37.508;2023-04-03T05:43:45;21.57;;;12.20;;
36599;SDS011;35385;55.668;37.508;2023-04-03T05:44:46;18.00;;;11.93;;
36599;SDS011;35385;55.668;37.508;2023-04-03T05:45:47;19.83;;;11.73;;
36599;SDS011;35385;55.668;37.508;2023-04-03T05:46:47;17.40;;;11.17;;
36599;SDS011;35385;55.668;37.508;2023-04-03T05:47:48;21.47;;;12.17;;
36599;SDS011;35385;55.668;37.508;2023-04-03T05:48:48;18.03;;;12.03;;
36599;SDS011;35385;55.668;37.508;2023-04-03T05:49:49;18.10;;;11.25;;
36599;SDS011;35385;55.668;37.508;2023-04-03T05:50:50;19.93;;;12.13;;
36599;SDS011;35385;55.668;37.508;2023-04-03T05:51:50;25.57;;;13.20;;
36599;SDS011;35385;55.668;37.508;2023-04-03T05:52:55;21.73;;;12.18;;
36599;SDS011;35385;55.668;37.508;2023-04-03T05:54:00;20.63;;;11.80;;
36599;SDS011;35385;55.668;37.508;2023-04-03T05:55:07;20.20;;;12.15;;
36599;SDS011;35385;55.668;37.508;2023-04-03T05:56:08;20.67;;;13.02;;
36599;SDS011;35385;55.668;37.508;2023-04-03T05:57:08;22.43;;;11.37;;
36599;SDS011;35385;55.668;37.508;2023-04-03T05:58:09;19.27;;;10.80;;
36599;SDS011;35385;55.668;37.508;2023-04-03T05:59:09;20.50;;;10.50;;
36599;SDS011;35385;55.668;37.508;2023-04-03T06:00:12;19.27;;;10.60;;
36599;SDS011;35385;55.668;37.508;2023-04-03T06:01:15;18.80;;;11.93;;